Pagrindinis puslapis
METAR-TAF:

METAR-TAF

Oro uostai :

Čáslav, Čekija

platuma: 49-56-23N, ilguma: 15-22-55E, Aukštis: 242 m

Dabartinis oras

Ataskaita buvo paskelbta 15 minutes, ne 23:30 UTC
Vėjas 2 kt iš Vakarų
Temperatūra 1°C
Drėgmė 86%
Slėgis 1021 hPa
Matomumas 10 km arba daugiau
Su prošvaistėmis ne aukštis 3700 ft

METAR: LKCV 212330Z 27002KT 9999 BKN037 01/M01 Q1021 NOSIG RMK BLU BLU

Laikas: 01:45 (23:45 UTC)

Prognozė

Ataskaita buvo paskelbta 6 valandos ir 45 minutes, ne 17:00 UTC
Prognozė galioja nuo 21 metu 18 UTC su 22 metu 18 UTC
Vėjas 10 kt iš Šiaurės Rytų
Matomumas 10 km arba daugiau
nėra debesų žemiau 1500 m ir nėra kamuolinių lietaus debesų
Tapsmas
nuo 21 metu 21 UTC su 21 metu 23 UTC
Vėjas 4 kt iš Šiaurės Vakarų
Laikinai
nuo 22 metu 02 UTC su 22 metu 07 UTC
Su prošvaistėmis ne aukštis 2000 ft
Tapsmas
nuo 22 metu 08 UTC su 22 metu 10 UTC
Vėjas 6 kt iš Šiaurės/Šiaurės Rytų
Su prošvaistėmis ne aukštis 3000 ft

TAF: LKCV 211700Z 2118/2218 04010KT CAVOK BECMG 2121/2123 31004KT TEMPO 2202/2207 BKN020 BECMG 2208/2210 02006KT BKN030

Orai ataskaitas ir orų prognozės (METAR, TAF).

turimą stotys yra geltonos ir raudonos taškus žemėlapyje.

Perkelti pele per norėdami pamatyti stoties vardą.

Tada spustelėkite, norėdami matyti oro stebėjimo ir prognozės.

Norėdami pakeisti žemėlapį: spustelėkite ant žalios mygtukų su juodo kryžiaus žemyn,; žalią mygtuką su brūkšneliu, jei norite nutolinti; arba žalių rodyklių gretimoms žemėlapius.


METAR-TAF: